アンカレッジ/テッド・スティーブンス の空港の天気 - METARとTAF

テッド・スティーブンス・アンカレッジ国際空港 ( PANC / ANC ) - アメリカ アラスカ州アンカレッジ
飛行場実況気象(Metar)
観測時間01/21 08:53 AKST (01/21 17:53 UTC)
風向・風速北北東 4m/s
視程10km以上
天気現象
少しの雲 雲底高度 3960m
気温-11.7℃
湿度53%
気圧999.1hPa
METARPANC 211753Z 02007KT 10SM FEW130 M12/M19 A2950 RMK AO2 SLP991 4/005 T11171194 11094 21117 56008 $
過去の天気等 Google飛行場航空写真 Wunderground天気予報

過去48時間のMETAR

飛行場予報(TAF)
発表時間: 1/21 08:32 AKST (1/21 17:32 UTC)
予報対象時間: 21日9時 AKST ~ 22日15時 AKST
風向・風速北北東 4m/s
視程10km以上
全天の8割程度の雲 雲底高度 3,660m
21日15時 AKST から
風向・風速北 4m/s
視程10km以上
天気現象周辺でしゅう雨
全天の4割程度の雲 雲底高度 1,220m
全天を覆う雲 雲底高度 1,830m
PANC 211732Z 2118/2224 02008KT P6SM BKN120
FM220000 36008KT P6SM VCSH SCT040 OVC060